UAL152 VHHH-VVTS
Flight info
| Callsign | UAL152 |
|---|---|
| Flight time | 2h 11m |
| Altitude | 40000 |
| Route | PECAN V12 EPDOS L642 EPKAL/K0885F400 L642 SOSPA W15 VETOM VETOM5C |
| Aircraft | B78X/H-SDE1E2E3FGHIJ2J3J4J5M1RWXY/LB1D1 |
Departure
| Time | 2026-05-05 00:10 |
|---|---|
| Airport | Hong Kong International Airport (VHHH) |
Arrival
| Time | 2026-05-05 02:22 |
|---|---|
| Airport | Tan Son Nhat International Airport (VVTS) |
| Time | Latitude | Longitude | Altitude | Speed | Heading |
|---|---|---|---|---|---|
| 2026-05-04 23:50 | 22.31358 | 113.92472 | 36 ft | 0 kts | 34° |
| 2026-05-04 23:53 | 22.31357 | 113.92471 | 36 ft | 2 kts | 34° |
| 2026-05-04 23:53 | 22.31343 | 113.92461 | 35 ft | 2 kts | 34° |
| 2026-05-04 23:53 | 22.31329 | 113.92450 | 36 ft | 3 kts | 19° |
| 2026-05-04 23:54 | 22.31310 | 113.92445 | 35 ft | 3 kts | 342° |
| 2026-05-04 23:54 | 22.31292 | 113.92453 | 34 ft | 3 kts | 324° |
| 2026-05-04 23:54 | 22.31278 | 113.92465 | 34 ft | 3 kts | 308° |
| 2026-05-04 23:54 | 22.31270 | 113.92476 | 35 ft | 0 kts | 295° |
| 2026-05-05 00:01 | 22.31270 | 113.92475 | 36 ft | 1 kts | 295° |
| 2026-05-05 00:01 | 22.31276 | 113.92462 | 36 ft | 3 kts | 295° |
| 2026-05-05 00:01 | 22.31290 | 113.92431 | 36 ft | 6 kts | 295° |
| 2026-05-05 00:02 | 22.31311 | 113.92373 | 36 ft | 14 kts | 291° |
| 2026-05-05 00:02 | 22.31364 | 113.92246 | 36 ft | 23 kts | 295° |
| 2026-05-05 00:02 | 22.31452 | 113.92093 | 36 ft | 23 kts | 323° |
| 2026-05-05 00:02 | 22.31562 | 113.92040 | 36 ft | 14 kts | 333° |
| 2026-05-05 00:03 | 22.31598 | 113.91949 | 36 ft | 14 kts | 263° |
| 2026-05-05 00:03 | 22.31574 | 113.91836 | 36 ft | 16 kts | 256° |
| 2026-05-05 00:03 | 22.31537 | 113.91714 | 36 ft | 18 kts | 250° |
| 2026-05-05 00:03 | 22.31489 | 113.91584 | 37 ft | 19 kts | 248° |
| 2026-05-05 00:04 | 22.31439 | 113.91444 | 37 ft | 21 kts | 250° |
| 2026-05-05 00:04 | 22.31389 | 113.91289 | 37 ft | 22 kts | 251° |
| 2026-05-05 00:04 | 22.31336 | 113.91125 | 37 ft | 24 kts | 251° |
| 2026-05-05 00:04 | 22.31281 | 113.90951 | 36 ft | 25 kts | 251° |
| 2026-05-05 00:05 | 22.31229 | 113.90789 | 36 ft | 17 kts | 251° |
| 2026-05-05 00:05 | 22.31193 | 113.90677 | 36 ft | 15 kts | 251° |
| 2026-05-05 00:05 | 22.31157 | 113.90562 | 36 ft | 17 kts | 251° |
| 2026-05-05 00:05 | 22.31119 | 113.90441 | 36 ft | 7 kts | 251° |
| 2026-05-05 00:06 | 22.31116 | 113.90432 | 36 ft | 2 kts | 251° |
| 2026-05-05 00:06 | 22.31108 | 113.90406 | 36 ft | 5 kts | 251° |
| 2026-05-05 00:06 | 22.31092 | 113.90353 | 35 ft | 10 kts | 251° |
| 2026-05-05 00:06 | 22.31066 | 113.90270 | 35 ft | 14 kts | 251° |
| 2026-05-05 00:07 | 22.31033 | 113.90163 | 36 ft | 17 kts | 251° |
| 2026-05-05 00:07 | 22.30992 | 113.90033 | 36 ft | 20 kts | 251° |
| 2026-05-05 00:07 | 22.30943 | 113.89888 | 36 ft | 14 kts | 248° |
| 2026-05-05 00:07 | 22.30936 | 113.89868 | 36 ft | 1 kts | 249° |
| 2026-05-05 00:08 | 22.30930 | 113.89851 | 36 ft | 3 kts | 249° |
| 2026-05-05 00:08 | 22.30919 | 113.89819 | 36 ft | 6 kts | 249° |
| 2026-05-05 00:08 | 22.30907 | 113.89772 | 36 ft | 7 kts | 264° |
| 2026-05-05 00:08 | 22.30925 | 113.89717 | 36 ft | 9 kts | 308° |
| 2026-05-05 00:09 | 22.30980 | 113.89682 | 34 ft | 10 kts | 333° |
| 2026-05-05 00:09 | 22.31046 | 113.89664 | 36 ft | 8 kts | 20° |
| 2026-05-05 00:09 | 22.31067 | 113.89708 | 35 ft | 7 kts | 71° |
| 2026-05-05 00:09 | 22.31085 | 113.89765 | 35 ft | 11 kts | 71° |
| 2026-05-05 00:10 | 22.31170 | 113.90028 | 36 ft | 80 kts | 71° |
| 2026-05-05 00:10 | 22.31339 | 113.90554 | 34 ft | 143 kts | 69° |
| 2026-05-05 00:10 | 22.31900 | 113.92200 | 631 ft | 204 kts | 72° |
| 2026-05-05 00:10 | 22.32367 | 113.93704 | 1888 ft | 211 kts | 73° |
| 2026-05-05 00:11 | 22.32847 | 113.95248 | 3392 ft | 224 kts | 74° |
| 2026-05-05 00:11 | 22.33192 | 113.96326 | 4246 ft | 233 kts | 72° |
| 2026-05-05 00:11 | 22.33617 | 113.98670 | 5826 ft | 246 kts | 80° |
| 2026-05-05 00:11 | 22.33836 | 113.99922 | 6668 ft | 251 kts | 78° |
| 2026-05-05 00:12 | 22.34168 | 114.01791 | 7820 ft | 260 kts | 79° |
| 2026-05-05 00:12 | 22.34416 | 114.03757 | 8968 ft | 269 kts | 93° |
| 2026-05-05 00:12 | 22.33986 | 114.05733 | 10116 ft | 274 kts | 117° |
| 2026-05-05 00:12 | 22.32873 | 114.07367 | 11267 ft | 269 kts | 142° |
| 2026-05-05 00:13 | 22.31312 | 114.08387 | 12480 ft | 264 kts | 164° |
| 2026-05-05 00:13 | 22.29504 | 114.08695 | 13708 ft | 262 kts | 182° |
| 2026-05-05 00:13 | 22.27664 | 114.08696 | 14760 ft | 267 kts | 182° |
| 2026-05-05 00:13 | 22.25788 | 114.08692 | 15816 ft | 272 kts | 183° |
| 2026-05-05 00:14 | 22.23878 | 114.08684 | 16862 ft | 278 kts | 183° |
| 2026-05-05 00:14 | 22.21923 | 114.08662 | 17961 ft | 284 kts | 184° |
| 2026-05-05 00:14 | 22.19917 | 114.08639 | 18814 ft | 295 kts | 184° |
| 2026-05-05 00:14 | 22.17802 | 114.08906 | 19357 ft | 321 kts | 165° |
| 2026-05-05 00:15 | 22.15780 | 114.10146 | 19858 ft | 351 kts | 140° |
| 2026-05-05 00:15 | 22.14267 | 114.12297 | 20319 ft | 379 kts | 123° |
| 2026-05-05 00:15 | 22.13003 | 114.14894 | 20718 ft | 402 kts | 118° |
| 2026-05-05 00:15 | 22.11786 | 114.17691 | 21270 ft | 418 kts | 118° |
| 2026-05-05 00:16 | 22.10473 | 114.20519 | 22099 ft | 424 kts | 120° |
| 2026-05-05 00:16 | 22.09081 | 114.23337 | 23014 ft | 427 kts | 122° |
| 2026-05-05 00:16 | 22.07423 | 114.25985 | 23934 ft | 423 kts | 136° |
| 2026-05-05 00:16 | 22.05260 | 114.28136 | 24549 ft | 425 kts | 148° |
| 2026-05-05 00:17 | 22.02804 | 114.29899 | 24960 ft | 430 kts | 159° |
| 2026-05-05 00:17 | 22.00006 | 114.31053 | 25590 ft | 427 kts | 172° |
| 2026-05-05 00:17 | 21.97095 | 114.31559 | 26328 ft | 420 kts | 184° |
| 2026-05-05 00:17 | 21.94200 | 114.31421 | 27135 ft | 411 kts | 195° |
| 2026-05-05 00:18 | 21.91456 | 114.30681 | 27963 ft | 402 kts | 207° |
| 2026-05-05 00:18 | 21.88988 | 114.29427 | 28810 ft | 392 kts | 217° |
| 2026-05-05 00:18 | 21.86797 | 114.27737 | 29664 ft | 386 kts | 223° |
| 2026-05-05 00:18 | 21.84665 | 114.25945 | 30245 ft | 391 kts | 223° |
| 2026-05-05 00:19 | 21.82519 | 114.24122 | 30829 ft | 392 kts | 224° |
| 2026-05-05 00:19 | 21.80380 | 114.22292 | 31464 ft | 393 kts | 224° |
| 2026-05-05 00:19 | 21.78227 | 114.20458 | 32123 ft | 393 kts | 224° |
| 2026-05-05 00:19 | 21.76075 | 114.18632 | 32789 ft | 393 kts | 224° |
| 2026-05-05 00:20 | 21.73958 | 114.16834 | 33436 ft | 392 kts | 224° |
| 2026-05-05 00:20 | 21.71816 | 114.15013 | 34122 ft | 391 kts | 224° |
| 2026-05-05 00:20 | 21.69675 | 114.13193 | 34704 ft | 391 kts | 224° |
| 2026-05-05 00:20 | 21.67529 | 114.11370 | 35223 ft | 392 kts | 224° |
| 2026-05-05 00:21 | 21.65283 | 114.09726 | 35745 ft | 399 kts | 214° |
| 2026-05-05 00:21 | 21.62743 | 114.08480 | 36225 ft | 407 kts | 205° |
| 2026-05-05 00:21 | 21.59973 | 114.07661 | 36702 ft | 413 kts | 200° |
| 2026-05-05 00:21 | 21.57176 | 114.06928 | 37130 ft | 414 kts | 200° |
| 2026-05-05 00:22 | 21.54364 | 114.06199 | 37585 ft | 415 kts | 200° |
| 2026-05-05 00:22 | 21.51581 | 114.05481 | 38013 ft | 416 kts | 200° |
| 2026-05-05 00:22 | 21.48759 | 114.04751 | 38460 ft | 417 kts | 200° |
| 2026-05-05 00:22 | 21.45933 | 114.04018 | 38860 ft | 418 kts | 200° |
| 2026-05-05 00:23 | 21.43054 | 114.03441 | 39232 ft | 424 kts | 190° |
| 2026-05-05 00:23 | 21.40094 | 114.03232 | 39596 ft | 425 kts | 189° |
| 2026-05-05 00:23 | 21.37132 | 114.03033 | 39930 ft | 426 kts | 189° |
| 2026-05-05 00:24 | 21.31210 | 114.02639 | 40007 ft | 438 kts | 189° |
| 2026-05-05 00:24 | 21.28127 | 114.02427 | 39999 ft | 450 kts | 189° |
| 2026-05-05 00:24 | 21.24972 | 114.02217 | 40017 ft | 459 kts | 189° |
| 2026-05-05 00:25 | 21.18448 | 114.01785 | 40014 ft | 478 kts | 188° |
| 2026-05-05 00:25 | 21.11807 | 114.01344 | 40014 ft | 481 kts | 188° |
| 2026-05-05 00:26 | 21.05118 | 114.00897 | 40012 ft | 482 kts | 188° |
| 2026-05-05 00:26 | 20.98428 | 114.00451 | 39998 ft | 481 kts | 188° |
| 2026-05-05 00:27 | 20.91815 | 113.99680 | 40013 ft | 473 kts | 197° |
| 2026-05-05 00:27 | 20.85370 | 113.98182 | 40007 ft | 474 kts | 197° |
| 2026-05-05 00:28 | 20.78955 | 113.96682 | 39999 ft | 474 kts | 197° |
| 2026-05-05 00:28 | 20.72513 | 113.95187 | 40001 ft | 474 kts | 197° |
| 2026-05-05 00:29 | 20.66072 | 113.93686 | 39988 ft | 472 kts | 197° |
| 2026-05-05 00:29 | 20.59647 | 113.92195 | 39988 ft | 472 kts | 197° |
| 2026-05-05 00:30 | 20.53250 | 113.90709 | 39984 ft | 472 kts | 197° |
| 2026-05-05 00:30 | 20.46834 | 113.89221 | 39983 ft | 472 kts | 197° |
| 2026-05-05 00:31 | 20.40412 | 113.87732 | 39983 ft | 472 kts | 197° |
| 2026-05-05 00:31 | 20.33992 | 113.86246 | 39983 ft | 472 kts | 197° |
| 2026-05-05 00:32 | 20.27569 | 113.84760 | 39980 ft | 471 kts | 197° |
| 2026-05-05 00:32 | 20.21198 | 113.83287 | 39980 ft | 472 kts | 197° |
| 2026-05-05 00:33 | 20.14750 | 113.81798 | 39979 ft | 473 kts | 197° |
| 2026-05-05 00:33 | 20.08318 | 113.80313 | 39982 ft | 472 kts | 197° |
| 2026-05-05 00:34 | 20.01903 | 113.78835 | 39979 ft | 470 kts | 197° |
| 2026-05-05 00:34 | 19.95528 | 113.77365 | 39979 ft | 472 kts | 197° |
| 2026-05-05 00:35 | 19.89097 | 113.75886 | 39980 ft | 472 kts | 197° |
| 2026-05-05 00:35 | 19.82684 | 113.74411 | 39982 ft | 471 kts | 197° |
| 2026-05-05 00:36 | 19.76268 | 113.72937 | 39976 ft | 469 kts | 197° |
| 2026-05-05 00:36 | 19.69918 | 113.71477 | 39974 ft | 470 kts | 197° |
| 2026-05-05 00:37 | 19.63517 | 113.70009 | 39974 ft | 470 kts | 197° |
| 2026-05-05 00:37 | 19.57112 | 113.68541 | 39970 ft | 470 kts | 197° |
| 2026-05-05 00:38 | 19.50753 | 113.67084 | 39976 ft | 470 kts | 197° |
| 2026-05-05 00:38 | 19.44364 | 113.65623 | 39972 ft | 469 kts | 197° |
| 2026-05-05 00:39 | 19.37978 | 113.64161 | 39969 ft | 469 kts | 197° |
| 2026-05-05 00:39 | 19.31590 | 113.62702 | 39968 ft | 469 kts | 197° |
| 2026-05-05 00:40 | 19.25205 | 113.61244 | 39969 ft | 469 kts | 197° |
| 2026-05-05 00:40 | 19.18858 | 113.59797 | 39962 ft | 469 kts | 197° |
| 2026-05-05 00:41 | 19.12447 | 113.58334 | 39968 ft | 470 kts | 197° |
| 2026-05-05 00:41 | 19.06083 | 113.56885 | 39969 ft | 470 kts | 197° |
| 2026-05-05 00:42 | 18.99664 | 113.55455 | 39970 ft | 473 kts | 193° |
| 2026-05-05 00:42 | 18.93130 | 113.54520 | 39969 ft | 473 kts | 193° |
| 2026-05-05 00:43 | 18.86585 | 113.53577 | 39959 ft | 473 kts | 193° |
| 2026-05-05 00:43 | 18.80092 | 113.52655 | 39958 ft | 472 kts | 193° |
| 2026-05-05 00:44 | 18.73577 | 113.51720 | 39959 ft | 472 kts | 193° |
| 2026-05-05 00:44 | 18.67084 | 113.50795 | 39962 ft | 473 kts | 193° |
| 2026-05-05 00:45 | 18.60543 | 113.49861 | 39960 ft | 474 kts | 193° |
| 2026-05-05 00:45 | 18.54241 | 113.48207 | 39992 ft | 461 kts | 212° |
| 2026-05-05 00:46 | 18.49046 | 113.44388 | 39974 ft | 453 kts | 224° |
| 2026-05-05 00:46 | 18.44210 | 113.40186 | 39970 ft | 456 kts | 220° |
| 2026-05-05 00:47 | 18.38984 | 113.36369 | 39971 ft | 457 kts | 220° |
| 2026-05-05 00:47 | 18.33895 | 113.32348 | 39976 ft | 456 kts | 220° |
| 2026-05-05 00:48 | 18.28771 | 113.28449 | 39952 ft | 456 kts | 219° |
| 2026-05-05 00:48 | 18.23644 | 113.24487 | 39964 ft | 457 kts | 220° |
| 2026-05-05 00:49 | 18.18523 | 113.20558 | 39961 ft | 457 kts | 220° |
| 2026-05-05 00:49 | 18.13411 | 113.16631 | 39966 ft | 457 kts | 220° |
| 2026-05-05 00:50 | 18.08267 | 113.12683 | 39958 ft | 457 kts | 220° |
| 2026-05-05 00:50 | 18.03120 | 113.08737 | 39960 ft | 458 kts | 220° |
| 2026-05-05 00:51 | 17.97963 | 113.04784 | 39960 ft | 459 kts | 219° |
| 2026-05-05 00:51 | 17.92820 | 113.00847 | 39957 ft | 460 kts | 219° |
| 2026-05-05 00:52 | 17.87640 | 112.96883 | 39957 ft | 460 kts | 219° |
| 2026-05-05 00:52 | 17.82501 | 112.92907 | 39952 ft | 460 kts | 220° |
| 2026-05-05 00:53 | 17.77386 | 112.88840 | 39958 ft | 460 kts | 220° |
| 2026-05-05 00:53 | 17.72275 | 112.84846 | 39955 ft | 459 kts | 220° |
| 2026-05-05 00:54 | 17.67150 | 112.80808 | 39948 ft | 460 kts | 220° |
| 2026-05-05 00:54 | 17.62036 | 112.76800 | 39949 ft | 461 kts | 220° |
| 2026-05-05 00:55 | 17.56891 | 112.72762 | 39948 ft | 461 kts | 220° |
| 2026-05-05 00:55 | 17.51770 | 112.68749 | 39949 ft | 461 kts | 220° |
| 2026-05-05 00:56 | 17.46628 | 112.64722 | 39951 ft | 460 kts | 220° |
| 2026-05-05 00:56 | 17.41523 | 112.60727 | 39950 ft | 459 kts | 220° |
| 2026-05-05 00:57 | 17.36394 | 112.56716 | 39948 ft | 460 kts | 220° |
| 2026-05-05 00:57 | 17.32124 | 112.53378 | 39957 ft | 461 kts | 220° |
| 2026-05-05 00:58 | 17.26129 | 112.48696 | 39953 ft | 462 kts | 220° |
| 2026-05-05 00:58 | 17.21841 | 112.45350 | 39955 ft | 461 kts | 220° |
| 2026-05-05 00:59 | 17.16686 | 112.41328 | 39956 ft | 461 kts | 220° |
| 2026-05-05 00:59 | 17.11560 | 112.37334 | 39952 ft | 461 kts | 220° |
| 2026-05-05 01:00 | 17.06397 | 112.33313 | 39949 ft | 462 kts | 220° |
| 2026-05-05 01:00 | 17.01239 | 112.29299 | 39961 ft | 462 kts | 220° |
| 2026-05-05 01:01 | 16.96070 | 112.25333 | 39958 ft | 462 kts | 219° |
| 2026-05-05 01:01 | 16.90851 | 112.21402 | 39958 ft | 461 kts | 219° |
| 2026-05-05 01:02 | 16.85692 | 112.17474 | 39956 ft | 460 kts | 219° |
| 2026-05-05 01:02 | 16.80495 | 112.13547 | 39952 ft | 461 kts | 219° |
| 2026-05-05 01:03 | 16.75316 | 112.09620 | 39953 ft | 462 kts | 219° |
| 2026-05-05 01:03 | 16.70095 | 112.05673 | 39954 ft | 462 kts | 219° |
| 2026-05-05 01:04 | 16.64908 | 112.01750 | 39952 ft | 462 kts | 219° |
| 2026-05-05 01:04 | 16.57082 | 111.95839 | 39954 ft | 463 kts | 219° |
| 2026-05-05 01:05 | 16.51885 | 111.91917 | 39950 ft | 462 kts | 219° |
| 2026-05-05 01:05 | 16.46661 | 111.87977 | 39949 ft | 462 kts | 219° |
| 2026-05-05 01:06 | 16.41480 | 111.84072 | 39943 ft | 462 kts | 219° |
| 2026-05-05 01:06 | 16.36268 | 111.80146 | 39944 ft | 461 kts | 219° |
| 2026-05-05 01:07 | 16.31059 | 111.76225 | 39944 ft | 461 kts | 219° |
| 2026-05-05 01:07 | 16.25882 | 111.72331 | 39944 ft | 462 kts | 219° |
| 2026-05-05 01:08 | 16.20663 | 111.68408 | 39948 ft | 461 kts | 219° |
| 2026-05-05 01:08 | 16.15453 | 111.64495 | 39945 ft | 461 kts | 219° |
| 2026-05-05 01:09 | 16.10277 | 111.60609 | 39941 ft | 460 kts | 219° |
| 2026-05-05 01:09 | 16.05075 | 111.56706 | 39940 ft | 460 kts | 219° |
| 2026-05-05 01:10 | 15.99896 | 111.52824 | 39946 ft | 460 kts | 219° |
| 2026-05-05 01:10 | 15.94690 | 111.48923 | 39946 ft | 460 kts | 219° |
| 2026-05-05 01:11 | 15.89484 | 111.45025 | 39946 ft | 461 kts | 219° |
| 2026-05-05 01:11 | 15.84267 | 111.41122 | 39948 ft | 461 kts | 219° |
| 2026-05-05 01:12 | 15.79077 | 111.37241 | 39945 ft | 462 kts | 219° |
| 2026-05-05 01:12 | 15.73878 | 111.33356 | 39946 ft | 462 kts | 219° |
| 2026-05-05 01:13 | 15.68640 | 111.29444 | 39950 ft | 462 kts | 219° |
| 2026-05-05 01:13 | 15.63447 | 111.25569 | 39951 ft | 462 kts | 219° |
| 2026-05-05 01:14 | 15.58207 | 111.21659 | 39943 ft | 464 kts | 219° |
| 2026-05-05 01:14 | 15.52955 | 111.17746 | 39942 ft | 464 kts | 219° |
| 2026-05-05 01:15 | 15.47738 | 111.13859 | 39937 ft | 463 kts | 219° |
| 2026-05-05 01:15 | 15.42472 | 111.09939 | 39959 ft | 466 kts | 219° |
| 2026-05-05 01:16 | 15.37204 | 111.06021 | 39956 ft | 465 kts | 219° |
| 2026-05-05 01:16 | 15.31994 | 111.02100 | 39960 ft | 465 kts | 220° |
| 2026-05-05 01:17 | 15.26767 | 110.98097 | 39954 ft | 468 kts | 219° |
| 2026-05-05 01:17 | 15.21529 | 110.94137 | 39952 ft | 467 kts | 219° |
| 2026-05-05 01:18 | 15.16282 | 110.90143 | 39950 ft | 467 kts | 219° |
| 2026-05-05 01:18 | 15.11055 | 110.86183 | 39949 ft | 467 kts | 219° |
| 2026-05-05 01:19 | 15.05807 | 110.82201 | 39953 ft | 467 kts | 219° |
| 2026-05-05 01:19 | 15.00578 | 110.78240 | 39952 ft | 467 kts | 219° |
| 2026-05-05 01:20 | 14.95274 | 110.74222 | 39953 ft | 474 kts | 219° |
| 2026-05-05 01:20 | 14.89993 | 110.70229 | 39949 ft | 472 kts | 219° |
| 2026-05-05 01:21 | 14.84679 | 110.66207 | 39949 ft | 472 kts | 219° |
| 2026-05-05 01:21 | 14.79394 | 110.62214 | 39952 ft | 472 kts | 219° |
| 2026-05-05 01:22 | 14.74081 | 110.58201 | 39950 ft | 472 kts | 219° |
| 2026-05-05 01:22 | 14.68766 | 110.54189 | 39942 ft | 472 kts | 219° |
| 2026-05-05 01:23 | 14.63492 | 110.50210 | 39941 ft | 472 kts | 219° |
| 2026-05-05 01:23 | 14.58173 | 110.46199 | 39942 ft | 471 kts | 219° |
| 2026-05-05 01:24 | 14.52883 | 110.42213 | 39943 ft | 472 kts | 219° |
| 2026-05-05 01:24 | 14.47566 | 110.38210 | 39941 ft | 472 kts | 219° |
| 2026-05-05 01:25 | 14.42253 | 110.34211 | 39942 ft | 472 kts | 219° |
| 2026-05-05 01:25 | 14.36967 | 110.30235 | 39942 ft | 472 kts | 219° |
| 2026-05-05 01:26 | 14.31652 | 110.26240 | 39948 ft | 472 kts | 219° |
| 2026-05-05 01:26 | 14.26326 | 110.22239 | 39943 ft | 472 kts | 219° |
| 2026-05-05 01:27 | 14.21039 | 110.18269 | 39945 ft | 472 kts | 219° |
| 2026-05-05 01:27 | 14.15726 | 110.14283 | 39947 ft | 471 kts | 219° |
| 2026-05-05 01:28 | 14.10445 | 110.10322 | 39949 ft | 474 kts | 219° |
| 2026-05-05 01:28 | 14.05115 | 110.06328 | 39943 ft | 474 kts | 218° |
| 2026-05-05 01:29 | 13.99775 | 110.02328 | 39950 ft | 474 kts | 218° |
| 2026-05-05 01:29 | 13.94317 | 109.98489 | 39961 ft | 475 kts | 214° |
| 2026-05-05 01:30 | 13.88697 | 109.94868 | 39963 ft | 476 kts | 214° |
| 2026-05-05 01:30 | 13.83111 | 109.91274 | 39966 ft | 475 kts | 214° |
| 2026-05-05 01:31 | 13.77499 | 109.87665 | 39963 ft | 475 kts | 214° |
| 2026-05-05 01:31 | 13.71916 | 109.84076 | 39957 ft | 474 kts | 214° |
| 2026-05-05 01:32 | 13.66328 | 109.80488 | 39955 ft | 473 kts | 214° |
| 2026-05-05 01:32 | 13.60735 | 109.76895 | 39958 ft | 474 kts | 214° |
| 2026-05-05 01:33 | 13.55156 | 109.73317 | 39961 ft | 475 kts | 214° |
| 2026-05-05 01:33 | 13.49541 | 109.69715 | 39957 ft | 475 kts | 214° |
| 2026-05-05 01:34 | 13.43947 | 109.66130 | 39963 ft | 475 kts | 214° |
| 2026-05-05 01:34 | 13.38346 | 109.62542 | 39959 ft | 473 kts | 213° |
| 2026-05-05 01:35 | 13.32784 | 109.58982 | 39953 ft | 472 kts | 213° |
| 2026-05-05 01:35 | 13.27221 | 109.55421 | 39952 ft | 472 kts | 213° |
| 2026-05-05 01:36 | 13.21635 | 109.51849 | 39959 ft | 473 kts | 213° |
| 2026-05-05 01:36 | 13.16036 | 109.48271 | 39961 ft | 474 kts | 213° |
| 2026-05-05 01:37 | 13.10431 | 109.44690 | 39966 ft | 474 kts | 213° |
| 2026-05-05 01:37 | 13.04835 | 109.41117 | 39959 ft | 478 kts | 213° |
| 2026-05-05 01:38 | 12.99198 | 109.37520 | 39965 ft | 476 kts | 213° |
| 2026-05-05 01:38 | 12.93603 | 109.33952 | 39964 ft | 476 kts | 213° |
| 2026-05-05 01:39 | 12.87974 | 109.30364 | 39963 ft | 475 kts | 213° |
| 2026-05-05 01:39 | 12.82352 | 109.26782 | 39962 ft | 475 kts | 213° |
| 2026-05-05 01:40 | 12.76748 | 109.23213 | 39963 ft | 476 kts | 213° |
| 2026-05-05 01:40 | 12.71090 | 109.19612 | 39975 ft | 479 kts | 213° |
| 2026-05-05 01:41 | 12.65428 | 109.16011 | 39977 ft | 478 kts | 213° |
| 2026-05-05 01:41 | 12.59770 | 109.12416 | 39977 ft | 478 kts | 213° |
| 2026-05-05 01:42 | 12.54136 | 109.08841 | 39988 ft | 477 kts | 213° |
| 2026-05-05 01:42 | 12.48516 | 109.05274 | 39989 ft | 477 kts | 213° |
| 2026-05-05 01:43 | 12.42859 | 109.01686 | 39987 ft | 477 kts | 213° |
| 2026-05-05 01:43 | 12.37258 | 108.98137 | 39998 ft | 476 kts | 213° |
| 2026-05-05 01:44 | 12.31618 | 108.94564 | 39994 ft | 476 kts | 213° |
| 2026-05-05 01:44 | 12.25998 | 108.91006 | 39995 ft | 476 kts | 213° |
| 2026-05-05 01:45 | 12.21274 | 108.88016 | 39998 ft | 476 kts | 213° |
| 2026-05-05 01:45 | 12.15668 | 108.84469 | 40009 ft | 476 kts | 213° |
| 2026-05-05 01:46 | 12.10026 | 108.80902 | 40002 ft | 477 kts | 213° |
| 2026-05-05 01:46 | 12.04360 | 108.77321 | 40018 ft | 482 kts | 213° |
| 2026-05-05 01:47 | 12.01484 | 108.75504 | 39738 ft | 489 kts | 213° |
| 2026-05-05 01:47 | 11.98558 | 108.73655 | 39092 ft | 495 kts | 213° |
| 2026-05-05 01:47 | 11.95616 | 108.71799 | 38419 ft | 495 kts | 213° |
| 2026-05-05 01:47 | 11.92724 | 108.69974 | 37822 ft | 493 kts | 213° |
| 2026-05-05 01:48 | 11.89806 | 108.68131 | 37208 ft | 490 kts | 212° |
| 2026-05-05 01:48 | 11.86917 | 108.66309 | 36641 ft | 485 kts | 212° |
| 2026-05-05 01:48 | 11.84161 | 108.64412 | 36081 ft | 481 kts | 221° |
| 2026-05-05 01:48 | 11.81839 | 108.61993 | 35512 ft | 470 kts | 234° |
| 2026-05-05 01:49 | 11.80170 | 108.59220 | 35025 ft | 446 kts | 246° |
| 2026-05-05 01:49 | 11.79232 | 108.56293 | 34526 ft | 426 kts | 260° |
| 2026-05-05 01:49 | 11.78901 | 108.53340 | 33992 ft | 414 kts | 266° |
| 2026-05-05 01:49 | 11.78763 | 108.50383 | 33483 ft | 423 kts | 266° |
| 2026-05-05 01:50 | 11.78547 | 108.47315 | 32976 ft | 438 kts | 263° |
| 2026-05-05 01:50 | 11.78074 | 108.44258 | 32471 ft | 440 kts | 255° |
| 2026-05-05 01:50 | 11.77223 | 108.41259 | 31923 ft | 439 kts | 250° |
| 2026-05-05 01:50 | 11.76212 | 108.38312 | 31407 ft | 437 kts | 249° |
| 2026-05-05 01:51 | 11.75157 | 108.35413 | 30884 ft | 434 kts | 242° |
| 2026-05-05 01:51 | 11.73614 | 108.32826 | 30387 ft | 430 kts | 234° |
| 2026-05-05 01:51 | 11.71870 | 108.30343 | 29818 ft | 429 kts | 232° |
| 2026-05-05 01:51 | 11.70091 | 108.27899 | 29303 ft | 425 kts | 233° |
| 2026-05-05 01:52 | 11.68390 | 108.25451 | 28803 ft | 421 kts | 234° |
| 2026-05-05 01:52 | 11.66759 | 108.23047 | 28325 ft | 410 kts | 234° |
| 2026-05-05 01:52 | 11.65131 | 108.20698 | 27844 ft | 399 kts | 233° |
| 2026-05-05 01:52 | 11.63534 | 108.18425 | 27384 ft | 389 kts | 233° |
| 2026-05-05 01:53 | 11.61972 | 108.16186 | 26944 ft | 385 kts | 233° |
| 2026-05-05 01:53 | 11.60411 | 108.13934 | 26499 ft | 393 kts | 233° |
| 2026-05-05 01:53 | 11.58819 | 108.11642 | 26032 ft | 398 kts | 234° |
| 2026-05-05 01:53 | 11.57219 | 108.09347 | 25575 ft | 395 kts | 234° |
| 2026-05-05 01:54 | 11.55627 | 108.07063 | 25127 ft | 393 kts | 234° |
| 2026-05-05 01:54 | 11.54074 | 108.04830 | 24682 ft | 390 kts | 234° |
| 2026-05-05 01:54 | 11.52503 | 108.02575 | 24231 ft | 387 kts | 234° |
| 2026-05-05 01:54 | 11.50941 | 108.00333 | 23790 ft | 385 kts | 234° |
| 2026-05-05 01:55 | 11.49412 | 107.98139 | 23309 ft | 382 kts | 234° |
| 2026-05-05 01:55 | 11.47880 | 107.95942 | 22874 ft | 377 kts | 234° |
| 2026-05-05 01:55 | 11.46367 | 107.93772 | 22441 ft | 373 kts | 234° |
| 2026-05-05 01:55 | 11.44871 | 107.91627 | 22025 ft | 368 kts | 234° |
| 2026-05-05 01:56 | 11.43395 | 107.89510 | 21601 ft | 364 kts | 234° |
| 2026-05-05 01:56 | 11.41938 | 107.87421 | 21184 ft | 359 kts | 234° |
| 2026-05-05 01:56 | 11.40499 | 107.85358 | 20790 ft | 356 kts | 234° |
| 2026-05-05 01:56 | 11.39064 | 107.83304 | 20404 ft | 356 kts | 234° |
| 2026-05-05 01:57 | 11.37627 | 107.81245 | 20004 ft | 354 kts | 234° |
| 2026-05-05 01:57 | 11.36219 | 107.79227 | 19600 ft | 350 kts | 234° |
| 2026-05-05 01:57 | 11.34812 | 107.77213 | 19209 ft | 348 kts | 234° |
| 2026-05-05 01:57 | 11.33397 | 107.75188 | 18811 ft | 351 kts | 234° |
| 2026-05-05 01:58 | 11.31982 | 107.73164 | 18406 ft | 347 kts | 234° |
| 2026-05-05 01:58 | 11.30608 | 107.71196 | 17994 ft | 343 kts | 234° |
| 2026-05-05 01:58 | 11.29221 | 107.69211 | 17583 ft | 337 kts | 234° |
| 2026-05-05 01:58 | 11.27873 | 107.67284 | 17221 ft | 340 kts | 234° |
| 2026-05-05 01:59 | 11.26500 | 107.65320 | 16850 ft | 337 kts | 234° |
| 2026-05-05 01:59 | 11.25146 | 107.63383 | 16468 ft | 332 kts | 234° |
| 2026-05-05 01:59 | 11.23798 | 107.61457 | 16104 ft | 335 kts | 233° |
| 2026-05-05 01:59 | 11.22244 | 107.59705 | 15723 ft | 329 kts | 222° |
| 2026-05-05 02:00 | 11.20616 | 107.58094 | 15361 ft | 331 kts | 224° |
| 2026-05-05 02:00 | 11.18977 | 107.56431 | 14985 ft | 330 kts | 224° |
| 2026-05-05 02:00 | 11.17347 | 107.54799 | 14616 ft | 325 kts | 224° |
| 2026-05-05 02:00 | 11.15720 | 107.53187 | 14244 ft | 329 kts | 224° |
| 2026-05-05 02:01 | 11.14087 | 107.51564 | 13887 ft | 325 kts | 224° |
| 2026-05-05 02:01 | 11.12506 | 107.49985 | 13504 ft | 321 kts | 224° |
| 2026-05-05 02:01 | 11.10896 | 107.48379 | 13139 ft | 323 kts | 224° |
| 2026-05-05 02:01 | 11.09300 | 107.46789 | 12778 ft | 317 kts | 224° |
| 2026-05-05 02:02 | 11.07716 | 107.45213 | 12415 ft | 320 kts | 223° |
| 2026-05-05 02:02 | 11.06128 | 107.43632 | 12049 ft | 315 kts | 223° |
| 2026-05-05 02:02 | 11.04565 | 107.42075 | 11696 ft | 315 kts | 223° |
| 2026-05-05 02:02 | 11.03006 | 107.40524 | 11349 ft | 314 kts | 223° |
| 2026-05-05 02:03 | 11.01636 | 107.38838 | 11062 ft | 305 kts | 240° |
| 2026-05-05 02:03 | 11.00945 | 107.36776 | 10764 ft | 312 kts | 257° |
| 2026-05-05 02:03 | 11.00483 | 107.34624 | 10475 ft | 310 kts | 258° |
| 2026-05-05 02:03 | 11.00052 | 107.32478 | 10196 ft | 305 kts | 258° |
| 2026-05-05 02:04 | 10.99618 | 107.30388 | 9913 ft | 299 kts | 257° |
| 2026-05-05 02:04 | 10.99183 | 107.28355 | 9651 ft | 297 kts | 257° |
| 2026-05-05 02:04 | 10.98746 | 107.26299 | 9360 ft | 295 kts | 258° |
| 2026-05-05 02:04 | 10.98757 | 107.24232 | 9079 ft | 294 kts | 289° |
| 2026-05-05 02:05 | 10.99869 | 107.22550 | 9034 ft | 282 kts | 321° |
| 2026-05-05 02:05 | 11.01489 | 107.21634 | 9022 ft | 253 kts | 343° |
| 2026-05-05 02:05 | 11.03153 | 107.21095 | 8922 ft | 258 kts | 346° |
| 2026-05-05 02:05 | 11.04839 | 107.20540 | 8724 ft | 252 kts | 343° |
| 2026-05-05 02:06 | 11.06467 | 107.19912 | 8555 ft | 250 kts | 341° |
| 2026-05-05 02:06 | 11.08031 | 107.19125 | 8360 ft | 252 kts | 327° |
| 2026-05-05 02:06 | 11.09390 | 107.18031 | 8182 ft | 252 kts | 324° |
| 2026-05-05 02:06 | 11.10768 | 107.16925 | 8005 ft | 251 kts | 324° |
| 2026-05-05 02:07 | 11.12142 | 107.15838 | 7810 ft | 244 kts | 324° |
| 2026-05-05 02:07 | 11.13466 | 107.14794 | 7617 ft | 240 kts | 325° |
| 2026-05-05 02:07 | 11.14765 | 107.13768 | 7822 ft | 240 kts | 324° |
| 2026-05-05 02:07 | 11.15893 | 107.12547 | 8035 ft | 239 kts | 306° |
| 2026-05-05 02:08 | 11.16838 | 107.11135 | 8264 ft | 242 kts | 307° |
| 2026-05-05 02:08 | 11.17817 | 107.09729 | 8513 ft | 244 kts | 307° |
| 2026-05-05 02:08 | 11.18793 | 107.08329 | 8771 ft | 246 kts | 307° |
| 2026-05-05 02:08 | 11.19781 | 107.06899 | 8991 ft | 248 kts | 307° |
| 2026-05-05 02:09 | 11.20766 | 107.05461 | 9006 ft | 245 kts | 305° |
| 2026-05-05 02:09 | 11.21432 | 107.03865 | 9005 ft | 245 kts | 288° |
| 2026-05-05 02:09 | 11.21950 | 107.02202 | 9007 ft | 246 kts | 289° |
| 2026-05-05 02:09 | 11.22475 | 107.00561 | 9005 ft | 246 kts | 289° |
| 2026-05-05 02:10 | 11.23011 | 106.98897 | 9006 ft | 246 kts | 289° |
| 2026-05-05 02:10 | 11.23291 | 106.97186 | 8980 ft | 247 kts | 262° |
| 2026-05-05 02:10 | 11.22587 | 106.95692 | 8853 ft | 228 kts | 223° |
| 2026-05-05 02:10 | 11.21245 | 106.94970 | 8628 ft | 214 kts | 190° |
| 2026-05-05 02:11 | 11.19794 | 106.94771 | 8438 ft | 208 kts | 182° |
| 2026-05-05 02:11 | 11.18368 | 106.94598 | 8245 ft | 209 kts | 185° |
| 2026-05-05 02:11 | 11.16940 | 106.94363 | 8042 ft | 208 kts | 186° |
| 2026-05-05 02:11 | 11.15512 | 106.94111 | 7828 ft | 207 kts | 186° |
| 2026-05-05 02:12 | 11.14089 | 106.93869 | 7624 ft | 206 kts | 186° |
| 2026-05-05 02:12 | 11.11277 | 106.93395 | 7192 ft | 204 kts | 186° |
| 2026-05-05 02:12 | 11.09888 | 106.93160 | 6998 ft | 204 kts | 186° |
| 2026-05-05 02:13 | 11.08482 | 106.92923 | 6778 ft | 203 kts | 186° |
| 2026-05-05 02:13 | 11.07088 | 106.92687 | 6571 ft | 203 kts | 186° |
| 2026-05-05 02:13 | 11.05697 | 106.92452 | 6364 ft | 201 kts | 186° |
| 2026-05-05 02:13 | 11.04315 | 106.92220 | 6155 ft | 201 kts | 186° |
| 2026-05-05 02:14 | 11.02938 | 106.91988 | 5934 ft | 199 kts | 186° |
| 2026-05-05 02:14 | 11.01588 | 106.91759 | 5737 ft | 199 kts | 186° |
| 2026-05-05 02:14 | 11.00218 | 106.91530 | 5535 ft | 200 kts | 186° |
| 2026-05-05 02:14 | 10.98847 | 106.91296 | 5329 ft | 199 kts | 186° |
| 2026-05-05 02:15 | 10.97488 | 106.91065 | 5111 ft | 196 kts | 186° |
| 2026-05-05 02:15 | 10.96145 | 106.90840 | 4914 ft | 195 kts | 186° |
| 2026-05-05 02:15 | 10.94807 | 106.90615 | 4708 ft | 196 kts | 186° |
| 2026-05-05 02:15 | 10.93461 | 106.90387 | 4504 ft | 196 kts | 186° |
| 2026-05-05 02:16 | 10.92117 | 106.90153 | 4299 ft | 197 kts | 189° |
| 2026-05-05 02:16 | 10.90959 | 106.89427 | 4034 ft | 202 kts | 231° |
| 2026-05-05 02:16 | 10.90398 | 106.88158 | 3877 ft | 195 kts | 251° |
| 2026-05-05 02:16 | 10.90014 | 106.86872 | 3709 ft | 185 kts | 255° |
| 2026-05-05 02:17 | 10.89754 | 106.85618 | 3489 ft | 179 kts | 251° |
| 2026-05-05 02:17 | 10.89302 | 106.84465 | 3330 ft | 172 kts | 250° |
| 2026-05-05 02:17 | 10.88881 | 106.83346 | 3157 ft | 166 kts | 250° |
| 2026-05-05 02:17 | 10.88475 | 106.82270 | 2987 ft | 160 kts | 251° |
| 2026-05-05 02:18 | 10.88102 | 106.81211 | 2819 ft | 159 kts | 253° |
| 2026-05-05 02:18 | 10.87804 | 106.80148 | 2661 ft | 154 kts | 254° |
| 2026-05-05 02:18 | 10.87445 | 106.79121 | 2552 ft | 155 kts | 249° |
| 2026-05-05 02:18 | 10.87033 | 106.78074 | 2363 ft | 157 kts | 250° |
| 2026-05-05 02:19 | 10.86618 | 106.77049 | 2147 ft | 151 kts | 250° |
| 2026-05-05 02:19 | 10.86236 | 106.76031 | 2011 ft | 153 kts | 251° |
| 2026-05-05 02:19 | 10.85883 | 106.75034 | 1995 ft | 157 kts | 251° |
| 2026-05-05 02:19 | 10.85516 | 106.74012 | 2007 ft | 154 kts | 250° |
| 2026-05-05 02:20 | 10.85083 | 106.73015 | 1863 ft | 159 kts | 248° |
| 2026-05-05 02:20 | 10.84637 | 106.71967 | 1502 ft | 156 kts | 249° |
| 2026-05-05 02:20 | 10.84228 | 106.70932 | 1207 ft | 156 kts | 252° |
| 2026-05-05 02:20 | 10.83850 | 106.69890 | 1038 ft | 159 kts | 251° |
| 2026-05-05 02:21 | 10.83454 | 106.68830 | 751 ft | 166 kts | 251° |
| 2026-05-05 02:21 | 10.83047 | 106.67743 | 482 ft | 164 kts | 246° |
| 2026-05-05 02:21 | 10.82634 | 106.66715 | 233 ft | 161 kts | 247° |
| 2026-05-05 02:21 | 10.82241 | 106.65681 | 44 ft | 145 kts | 249° |
| 2026-05-05 02:22 | 10.81952 | 106.64916 | 45 ft | 88 kts | 248° |
| 2026-05-05 02:22 | 10.81791 | 106.64502 | 48 ft | 40 kts | 245° |
| 2026-05-05 02:22 | 10.81710 | 106.64387 | 47 ft | 0 kts | 225° |
| 2026-05-05 02:22 | 10.81668 | 106.64349 | 47 ft | 18 kts | 220° |
| 2026-05-05 02:23 | 10.81517 | 106.64304 | 44 ft | 28 kts | 174° |
| 2026-05-05 02:23 | 10.81324 | 106.64370 | 42 ft | 29 kts | 157° |
| 2026-05-05 02:23 | 10.81223 | 106.64480 | 43 ft | 20 kts | 104° |
| 2026-05-05 02:23 | 10.81215 | 106.64632 | 44 ft | 22 kts | 85° |
| 2026-05-05 02:24 | 10.81261 | 106.64776 | 44 ft | 22 kts | 67° |
| 2026-05-05 02:24 | 10.81314 | 106.64919 | 45 ft | 22 kts | 71° |
| 2026-05-05 02:24 | 10.81364 | 106.65063 | 45 ft | 21 kts | 67° |
| 2026-05-05 02:24 | 10.81422 | 106.65204 | 45 ft | 21 kts | 69° |
| 2026-05-05 02:25 | 10.81475 | 106.65344 | 45 ft | 22 kts | 69° |
| 2026-05-05 02:25 | 10.81528 | 106.65487 | 45 ft | 22 kts | 70° |
| 2026-05-05 02:25 | 10.81581 | 106.65631 | 44 ft | 22 kts | 70° |
| 2026-05-05 02:25 | 10.81634 | 106.65774 | 46 ft | 21 kts | 68° |
| 2026-05-05 02:26 | 10.81688 | 106.65914 | 46 ft | 21 kts | 68° |
| 2026-05-05 02:26 | 10.81718 | 106.65992 | 47 ft | 7 kts | 68° |
| 2026-05-05 02:26 | 10.81739 | 106.66046 | 47 ft | 7 kts | 68° |
| 2026-05-05 02:26 | 10.81759 | 106.66101 | 47 ft | 9 kts | 75° |
| 2026-05-05 02:27 | 10.81742 | 106.66151 | 47 ft | 7 kts | 141° |
| 2026-05-05 02:27 | 10.81699 | 106.66172 | 47 ft | 0 kts | 156° |